Time;durP1;ratioP1;P1;durP2;ratioP2;P2;SDS_P1;SDS_P2;PMS_P1;PMS_P2;Temp;Humidity;BMP_temperature;BMP_pressure;BME280_temperature;BME280_humidity;BME280_pressure;Samples;Min_cycle;Max_cycle;Signal;HPM_P1;HPM_P2
2023/07/29 00:01:16;;;;;;;3.55;2.55;;;22.60;77.80;;;;;;6109368;28;81546;-71
2023/07/29 00:04:16;;;;;;;3.45;2.40;;;22.50;78.00;;;;;;6110867;28;80545;-71
2023/07/29 00:07:17;;;;;;;4.90;2.55;;;22.50;78.30;;;;;;6133202;28;80500;-73
2023/07/29 00:10:17;;;;;;;4.80;2.75;;;22.50;78.50;;;;;;6133913;28;80741;-73
2023/07/29 00:13:18;;;;;;;6.65;2.90;;;22.60;78.60;;;;;;6136505;28;81139;-73
2023/07/29 00:16:21;;;;;;;4.43;2.92;;;22.70;78.50;;;;;;6128205;28;82438;-74
2023/07/29 00:19:23;;;;;;;6.25;2.90;;;22.70;77.90;;;;;;6136768;28;80297;-63
2023/07/29 00:22:23;;;;;;;3.85;2.67;;;22.90;77.40;;;;;;6130338;28;81745;-64
2023/07/29 00:25:24;;;;;;;6.95;2.70;;;23.00;76.70;;;;;;6127686;28;80545;-66
2023/07/29 00:28:25;;;;;;;3.17;2.47;;;23.20;76.00;;;;;;6117987;28;81482;-63
2023/07/29 00:31:25;;;;;;;5.32;2.67;;;23.30;75.40;;;;;;6121045;28;82996;-65
2023/07/29 00:34:26;;;;;;;3.13;2.60;;;23.40;74.80;;;;;;6113622;28;80563;-65
2023/07/29 00:37:26;;;;;;;3.08;2.63;;;23.50;74.40;;;;;;6120152;28;80889;-71
2023/07/29 00:40:26;;;;;;;4.25;2.60;;;23.60;74.10;;;;;;6118459;28;83534;-70
2023/07/29 00:43:27;;;;;;;6.57;2.97;;;23.70;73.90;;;;;;6097303;28;82598;-70
2023/07/29 00:46:29;;;;;;;6.88;2.42;;;23.70;73.60;;;;;;6129167;28;81406;-71
2023/07/29 00:49:31;;;;;;;4.18;2.35;;;23.80;73.30;;;;;;6127615;28;81730;-72
2023/07/29 00:52:31;;;;;;;4.45;2.42;;;23.80;73.10;;;;;;6126021;28;81069;-72
2023/07/29 00:55:32;;;;;;;3.10;2.50;;;23.90;73.00;;;;;;6127089;28;81355;-64
2023/07/29 00:58:32;;;;;;;3.50;2.88;;;23.90;72.80;;;;;;6121309;28;80757;-64
2023/07/29 01:01:33;;;;;;;3.70;2.22;;;23.90;72.70;;;;;;6129305;28;80586;-64
2023/07/29 01:04:33;;;;;;;2.55;2.33;;;24.00;72.50;;;;;;6112941;28;83365;-63
2023/07/29 01:07:34;;;;;;;3.20;2.20;;;24.00;72.40;;;;;;6129079;28;81470;-63
2023/07/29 01:10:35;;;;;;;3.30;2.50;;;24.00;72.30;;;;;;6119973;28;80767;-64
2023/07/29 01:13:35;;;;;;;4.35;2.20;;;24.00;72.30;;;;;;6131293;28;80749;-60
2023/07/29 01:16:36;;;;;;;2.85;2.30;;;24.00;72.20;;;;;;6119893;28;83098;-61
2023/07/29 01:19:36;;;;;;;4.40;2.65;;;24.00;72.10;;;;;;6106254;28;82390;-61
2023/07/29 01:22:37;;;;;;;7.90;2.53;;;24.10;71.90;;;;;;6118995;28;82646;-61
2023/07/29 01:25:38;;;;;;;4.05;2.90;;;24.10;71.90;;;;;;6098778;28;82286;-61
2023/07/29 01:28:39;;;;;;;3.33;2.38;;;24.10;72.10;;;;;;6107658;28;82651;-59
2023/07/29 01:31:40;;;;;;;2.85;2.30;;;24.10;71.90;;;;;;6108817;28;81633;-63
2023/07/29 01:34:41;;;;;;;12.32;2.58;;;24.10;71.90;;;;;;6152634;28;80555;-63
2023/07/29 01:37:41;;;;;;;2.53;2.30;;;24.10;72.00;;;;;;6147183;28;80816;-64
2023/07/29 01:40:42;;;;;;;3.58;2.47;;;24.10;71.70;;;;;;6113200;28;81515;-64
2023/07/29 01:43:46;;;;;;;3.78;2.63;;;24.10;71.90;;;;;;6136756;28;83031;-64
2023/07/29 01:46:47;;;;;;;3.60;2.60;;;24.10;71.90;;;;;;6106619;28;83309;-64
2023/07/29 01:49:47;;;;;;;3.30;2.40;;;24.20;71.90;;;;;;6128885;28;82818;-62
2023/07/29 01:52:48;;;;;;;2.95;2.53;;;24.20;71.70;;;;;;6109194;28;84183;-61
2023/07/29 01:55:48;;;;;;;2.35;2.15;;;24.20;71.70;;;;;;6136230;28;82297;-61
2023/07/29 01:58:49;;;;;;;2.67;2.22;;;24.20;71.60;;;;;;6130043;28;83279;-61
2023/07/29 02:01:50;;;;;;;2.63;2.38;;;24.20;71.50;;;;;;6111313;28;83274;-61
2023/07/29 02:04:52;;;;;;;3.65;2.92;;;24.20;71.70;;;;;;6117890;28;81605;-61
2023/07/29 02:07:52;;;;;;;4.18;3.00;;;24.20;71.70;;;;;;6111692;28;83117;-61
2023/07/29 02:10:53;;;;;;;5.75;2.03;;;24.20;71.90;;;;;;6106399;28;80301;-62
2023/07/29 02:13:54;;;;;;;3.75;2.50;;;24.20;71.50;;;;;;6111432;28;83316;-62
2023/07/29 02:16:54;;;;;;;3.38;2.30;;;24.20;71.80;;;;;;6112729;28;80991;-61
2023/07/29 02:19:55;;;;;;;8.13;2.78;;;24.20;71.80;;;;;;6120193;28;80547;-61
2023/07/29 02:22:55;;;;;;;3.40;2.70;;;24.20;71.70;;;;;;6147254;28;83786;-60
2023/07/29 02:25:56;;;;;;;5.50;2.58;;;24.20;71.40;;;;;;6126644;28;83478;-61
2023/07/29 02:28:56;;;;;;;3.20;2.17;;;24.20;71.70;;;;;;6119146;28;80293;-73
2023/07/29 02:31:57;;;;;;;2.50;2.25;;;24.20;71.60;;;;;;6126775;28;80745;-68
2023/07/29 02:34:57;;;;;;;3.42;2.50;;;24.20;71.50;;;;;;6098305;28;81077;-68
2023/07/29 02:37:58;;;;;;;5.95;2.30;;;24.20;71.60;;;;;;6120476;28;82652;-68
2023/07/29 02:40:59;;;;;;;3.03;2.60;;;24.30;71.70;;;;;;6114220;28;80404;-70
2023/07/29 02:43:59;;;;;;;3.67;2.40;;;24.30;71.50;;;;;;6100337;28;81556;-67
2023/07/29 02:47:00;;;;;;;4.55;3.13;;;24.30;71.40;;;;;;6117561;28;80421;-60
2023/07/29 02:50:00;;;;;;;3.95;2.47;;;24.30;71.50;;;;;;6095572;28;81496;-61
2023/07/29 02:53:01;;;;;;;16.48;2.83;;;24.30;71.50;;;;;;6122283;28;80266;-60
2023/07/29 02:56:02;;;;;;;4.70;2.60;;;24.30;71.50;;;;;;6141274;28;85134;-62
2023/07/29 02:59:02;;;;;;;4.45;2.70;;;24.30;71.60;;;;;;6116479;28;82104;-62
2023/07/29 03:02:04;;;;;;;3.08;2.78;;;24.30;71.70;;;;;;6119881;28;81204;-61
2023/07/29 03:05:05;;;;;;;3.38;2.42;;;24.30;71.60;;;;;;6097303;28;82363;-59
2023/07/29 03:08:06;;;;;;;4.10;2.67;;;24.30;71.60;;;;;;6103192;28;83327;-60
2023/07/29 03:11:07;;;;;;;2.75;2.35;;;24.30;71.60;;;;;;6108467;28;80179;-61
2023/07/29 03:14:07;;;;;;;3.90;2.47;;;24.30;71.40;;;;;;6104753;28;83642;-61
2023/07/29 03:17:08;;;;;;;4.65;2.85;;;24.30;71.50;;;;;;6107070;28;82239;-61
2023/07/29 03:20:08;;;;;;;3.28;2.70;;;24.30;71.60;;;;;;6105849;28;80967;-60
2023/07/29 03:23:09;;;;;;;3.30;2.72;;;24.30;71.50;;;;;;6103757;28;83835;-60
2023/07/29 03:26:10;;;;;;;4.05;2.75;;;24.30;71.70;;;;;;6105880;28;83618;-60
2023/07/29 03:29:11;;;;;;;4.80;3.03;;;24.30;71.60;;;;;;6119039;28;82494;-60
2023/07/29 03:32:11;;;;;;;4.18;2.80;;;24.30;71.90;;;;;;6116138;28;83123;-60
2023/07/29 03:35:12;;;;;;;5.68;3.00;;;24.30;71.90;;;;;;6125435;28;80840;-60
2023/07/29 03:38:12;;;;;;;4.75;3.10;;;24.30;71.80;;;;;;6116259;28;82884;-60
2023/07/29 03:41:13;;;;;;;4.28;2.72;;;24.30;71.80;;;;;;6128780;28;81390;-59
2023/07/29 03:44:13;;;;;;;3.92;3.00;;;24.30;72.00;;;;;;6134349;28;82971;-60
2023/07/29 03:47:14;;;;;;;3.65;2.83;;;24.30;71.90;;;;;;6124654;28;81757;-59
2023/07/29 03:50:17;;;;;;;8.90;3.38;;;24.30;71.50;;;;;;6126910;28;86646;-60
2023/07/29 03:53:17;;;;;;;9.55;2.90;;;24.30;71.90;;;;;;6116027;28;83101;-58
2023/07/29 03:56:18;;;;;;;6.03;2.75;;;24.30;71.80;;;;;;6126865;28;81826;-58
2023/07/29 03:59:18;;;;;;;5.90;3.15;;;24.30;71.70;;;;;;6116813;28;83797;-67
2023/07/29 04:02:19;;;;;;;5.88;3.58;;;24.30;71.90;;;;;;6138661;28;83230;-67
2023/07/29 04:05:20;;;;;;;3.90;2.97;;;24.30;71.90;;;;;;6134840;28;83191;-67
2023/07/29 04:08:20;;;;;;;4.00;3.10;;;24.30;71.80;;;;;;6119483;28;83160;-65
2023/07/29 04:11:21;;;;;;;5.30;3.08;;;24.30;72.10;;;;;;6138458;28;83468;-66
2023/07/29 04:14:22;;;;;;;7.53;3.30;;;24.30;72.10;;;;;;6117783;28;87351;-64
2023/07/29 04:17:22;;;;;;;4.43;3.22;;;24.30;72.30;;;;;;6118797;28;82912;-64
2023/07/29 04:20:23;;;;;;;5.15;3.08;;;24.30;72.60;;;;;;6111122;28;81730;-72
2023/07/29 04:23:23;;;;;;;5.88;3.22;;;24.40;72.70;;;;;;6122255;28;80533;-69
2023/07/29 04:26:24;;;;;;;7.68;3.47;;;24.30;72.80;;;;;;6129862;28;82022;-64
2023/07/29 04:29:24;;;;;;;5.75;3.17;;;24.30;73.10;;;;;;6119862;28;83410;-72
2023/07/29 04:32:25;;;;;;;6.13;3.03;;;24.40;72.90;;;;;;6124828;28;81575;-68
2023/07/29 04:35:26;;;;;;;6.88;3.05;;;24.40;73.00;;;;;;6114630;28;83904;-58
2023/07/29 04:38:26;;;;;;;4.82;3.38;;;24.40;72.90;;;;;;6130459;28;82118;-56
2023/07/29 04:41:27;;;;;;;4.75;2.97;;;24.40;72.90;;;;;;6129888;28;81629;-54
2023/07/29 04:44:28;;;;;;;4.57;3.30;;;24.40;73.00;;;;;;6127597;28;80439;-57
2023/07/29 04:47:28;;;;;;;4.15;2.92;;;24.40;72.80;;;;;;6130953;28;80396;-59
2023/07/29 04:50:30;;;;;;;4.22;2.97;;;24.40;72.90;;;;;;6133865;28;80920;-55
2023/07/29 04:53:31;;;;;;;4.25;3.17;;;24.40;73.10;;;;;;6128125;28;81577;-56
2023/07/29 04:56:31;;;;;;;10.20;3.28;;;24.40;73.10;;;;;;6120532;28;81825;-58
2023/07/29 04:59:32;;;;;;;134.77;64.72;;;24.50;73.50;;;;;;6130329;28;81286;-58
2023/07/29 05:02:33;;;;;;;186.85;99.80;;;24.50;73.40;;;;;;6121268;28;83272;-59
2023/07/29 05:05:33;;;;;;;238.38;122.55;;;24.60;73.60;;;;;;6123631;28;84133;-58
2023/07/29 05:08:35;;;;;;;490.88;254.15;;;24.60;74.10;;;;;;6120389;28;87893;-58
2023/07/29 05:11:35;;;;;;;589.28;325.95;;;24.60;74.40;;;;;;6111646;28;88397;-58
2023/07/29 05:14:36;;;;;;;606.78;335.45;;;24.60;74.60;;;;;;6120948;28;88335;-64
2023/07/29 05:17:36;;;;;;;646.05;369.40;;;24.60;74.40;;;;;;6113771;28;88425;-64
2023/07/29 05:20:37;;;;;;;708.70;398.25;;;24.70;74.40;;;;;;6131776;28;88579;-64
2023/07/29 05:23:38;;;;;;;648.95;376.60;;;24.70;74.80;;;;;;6116482;28;85546;-64
2023/07/29 05:26:38;;;;;;;542.25;292.65;;;24.70;74.70;;;;;;6123051;28;86532;-69
2023/07/29 05:29:39;;;;;;;479.80;247.00;;;24.80;74.10;;;;;;6133464;28;88694;-61
2023/07/29 05:32:39;;;;;;;434.38;216.60;;;24.80;74.10;;;;;;6112375;28;86711;-63
2023/07/29 05:35:40;;;;;;;438.08;225.05;;;24.80;73.80;;;;;;6116215;28;85418;-69
2023/07/29 05:38:42;;;;;;;395.67;198.30;;;24.80;73.80;;;;;;6112013;28;85933;-63
2023/07/29 05:41:42;;;;;;;329.02;166.90;;;24.80;74.30;;;;;;6117776;28;85643;-66
2023/07/29 05:44:43;;;;;;;313.38;155.10;;;24.80;74.30;;;;;;6093053;28;88057;-67
2023/07/29 05:47:43;;;;;;;197.63;103.80;;;24.80;74.60;;;;;;6102826;28;87563;-65
2023/07/29 05:50:44;;;;;;;181.20;89.47;;;24.80;75.80;;;;;;6109725;28;88367;-73
2023/07/29 05:53:45;;;;;;;162.90;83.97;;;24.80;76.10;;;;;;6120732;28;88267;-72
2023/07/29 05:56:45;;;;;;;130.52;65.85;;;24.90;76.40;;;;;;6132221;28;85004;-63
2023/07/29 05:59:47;;;;;;;112.50;55.60;;;24.80;76.60;;;;;;6096962;28;84564;-68
2023/07/29 06:02:48;;;;;;;96.47;50.22;;;24.80;76.80;;;;;;6126859;28;84612;-71
2023/07/29 06:05:51;;;;;;;85.05;43.08;;;24.90;76.60;;;;;;6114978;28;86190;-68
2023/07/29 06:08:51;;;;;;;79.07;40.17;;;24.90;76.60;;;;;;6137181;28;83006;-71
2023/07/29 06:11:52;;;;;;;66.55;36.28;;;24.90;76.50;;;;;;6122763;28;83809;-70
2023/07/29 06:14:53;;;;;;;61.28;32.15;;;24.90;76.30;;;;;;6115697;28;85647;-69
2023/07/29 06:17:53;;;;;;;54.75;27.80;;;24.90;76.30;;;;;;6128164;28;83236;-71
2023/07/29 06:20:54;;;;;;;43.85;23.58;;;24.90;76.40;;;;;;6113056;28;86421;-62
2023/07/29 06:23:54;;;;;;;42.42;20.83;;;24.90;76.20;;;;;;6123928;28;84686;-70
2023/07/29 06:26:55;;;;;;;26.02;14.90;;;24.90;76.10;;;;;;6114373;28;86264;-57
2023/07/29 06:29:55;;;;;;;28.08;17.10;;;24.80;76.00;;;;;;6123819;28;83448;-52
2023/07/29 06:32:56;;;;;;;29.10;16.00;;;24.90;76.20;;;;;;6119720;28;83547;-58
2023/07/29 06:35:56;;;;;;;21.85;13.13;;;24.80;75.50;;;;;;6022890;28;84605;-53
2023/07/29 06:38:57;;;;;;;21.80;13.05;;;24.70;76.00;;;;;;6122151;28;83214;-56
2023/07/29 06:41:57;;;;;;;22.83;13.00;;;24.80;75.70;;;;;;6107587;28;85128;-55
2023/07/29 06:44:58;;;;;;;13.50;7.70;;;24.80;75.10;;;;;;5982097;28;85779;-50
2023/07/29 06:47:58;;;;;;;9.75;4.90;;;24.70;75.20;;;;;;6121758;28;82906;-56
2023/07/29 06:51:00;;;;;;;12.20;6.70;;;24.70;74.10;;;;;;6120010;28;80667;-53
2023/07/29 06:54:01;;;;;;;12.75;7.00;;;24.70;74.90;;;;;;6130687;28;81112;-53
2023/07/29 06:57:01;;;;;;;8.00;4.97;;;24.80;74.90;;;;;;6129399;28;82165;-57
2023/07/29 07:00:02;;;;;;;5.65;3.92;;;24.70;74.00;;;;;;6124371;28;87540;-57
2023/07/29 07:03:02;;;;;;;4.15;3.30;;;24.60;74.50;;;;;;6115090;28;82515;-57
2023/07/29 07:06:04;;;;;;;4.32;2.83;;;24.60;74.90;;;;;;6118599;28;80840;-57
2023/07/29 07:09:04;;;;;;;3.85;3.15;;;24.60;74.20;;;;;;6123989;28;80389;-58
2023/07/29 07:12:05;;;;;;;5.07;2.90;;;24.60;74.20;;;;;;6124698;28;83276;-57
2023/07/29 07:15:05;;;;;;;5.55;2.85;;;24.60;74.10;;;;;;6126256;28;80577;-57
2023/07/29 07:18:06;;;;;;;7.43;3.60;;;24.70;73.90;;;;;;6118166;28;82133;-54
2023/07/29 07:21:06;;;;;;;5.10;3.15;;;24.70;73.70;;;;;;6129193;28;80892;-60
2023/07/29 07:24:07;;;;;;;4.68;3.10;;;24.70;74.00;;;;;;6114626;28;81863;-56
2023/07/29 07:27:07;;;;;;;4.68;2.80;;;24.70;74.20;;;;;;6123850;28;80694;-56
2023/07/29 07:30:08;;;;;;;2.83;2.30;;;24.70;73.30;;;;;;6121495;28;83382;-57
2023/07/29 07:33:09;;;;;;;3.97;2.63;;;24.70;73.30;;;;;;6121030;28;83227;-56
2023/07/29 07:36:09;;;;;;;4.20;2.65;;;24.70;73.00;;;;;;6127441;28;82485;-57
2023/07/29 07:39:10;;;;;;;6.53;2.55;;;24.80;72.80;;;;;;6117570;28;80481;-57
2023/07/29 07:42:10;;;;;;;5.63;2.90;;;24.90;72.50;;;;;;6126455;28;81507;-57
2023/07/29 07:45:11;;;;;;;4.70;2.90;;;24.90;73.20;;;;;;6109795;28;81541;-54
2023/07/29 07:48:12;;;;;;;4.35;2.95;;;24.90;73.10;;;;;;6123950;28;81790;-58
2023/07/29 07:51:13;;;;;;;4.03;2.38;;;25.00;72.80;;;;;;6127881;28;82929;-59
2023/07/29 07:54:14;;;;;;;4.88;2.70;;;25.00;72.80;;;;;;6110837;28;83292;-58
2023/07/29 07:57:14;;;;;;;2.67;2.42;;;25.00;72.50;;;;;;6129183;28;80557;-55
2023/07/29 08:00:16;;;;;;;10.15;2.40;;;25.10;72.30;;;;;;6122312;28;82383;-55
2023/07/29 08:03:16;;;;;;;3.90;2.60;;;25.10;72.20;;;;;;6134851;28;81161;-53
2023/07/29 08:06:17;;;;;;;3.80;2.67;;;25.10;72.20;;;;;;6120372;28;81745;-54
2023/07/29 08:09:17;;;;;;;2.63;2.28;;;25.00;71.70;;;;;;6129033;28;80967;-51
2023/07/29 08:12:18;;;;;;;2.30;2.10;;;25.10;71.90;;;;;;6125391;28;81405;-53
2023/07/29 08:15:20;;;;;;;3.78;2.70;;;25.10;71.90;;;;;;6120495;28;83038;-57
2023/07/29 08:18:21;;;;;;;2.83;2.50;;;25.10;71.70;;;;;;6128597;28;81620;-54
2023/07/29 08:21:21;;;;;;;3.45;2.40;;;25.20;71.70;;;;;;6119887;28;82364;-55
2023/07/29 08:24:22;;;;;;;3.65;2.85;;;25.20;71.60;;;;;;6124661;28;82633;-58
2023/07/29 08:27:22;;;;;;;5.72;2.45;;;25.20;71.60;;;;;;6118987;28;82664;-54
2023/07/29 08:30:23;;;;;;;4.68;2.55;;;25.20;71.40;;;;;;6124593;28;81360;-54
2023/07/29 08:33:23;;;;;;;3.95;2.10;;;25.20;71.40;;;;;;6125437;28;80517;-56
2023/07/29 08:36:24;;;;;;;3.65;2.80;;;25.30;71.40;;;;;;6119440;28;81891;-54
2023/07/29 08:39:24;;;;;;;3.95;2.20;;;25.30;71.30;;;;;;6132550;28;80232;-54
2023/07/29 08:42:25;;;;;;;6.35;2.80;;;25.30;71.70;;;;;;6116329;28;82457;-56
2023/07/29 08:45:25;;;;;;;2.90;2.13;;;25.30;71.70;;;;;;6126005;28;81263;-57
2023/07/29 08:48:26;;;;;;;6.57;2.63;;;25.30;71.70;;;;;;6117158;28;80467;-57
2023/07/29 08:51:26;;;;;;;4.72;2.28;;;25.30;71.30;;;;;;6126575;28;81181;-59
2023/07/29 08:54:27;;;;;;;4.60;2.40;;;25.40;71.20;;;;;;6126054;28;85435;-58
2023/07/29 08:57:27;;;;;;;5.05;2.15;;;25.40;71.20;;;;;;6115100;28;82122;-58
2023/07/29 09:00:28;;;;;;;3.42;2.50;;;25.40;71.00;;;;;;6127103;28;80437;-59
2023/07/29 09:03:29;;;;;;;5.80;2.80;;;25.50;70.90;;;;;;6118864;28;81481;-59
2023/07/29 09:06:29;;;;;;;5.72;2.28;;;25.50;71.10;;;;;;6126672;28;86404;-55
2023/07/29 09:09:30;;;;;;;10.15;2.88;;;25.50;70.50;;;;;;6117914;28;82897;-56
2023/07/29 09:12:30;;;;;;;9.48;2.65;;;25.50;70.30;;;;;;6123872;28;81219;-66
2023/07/29 09:15:31;;;;;;;3.38;2.28;;;25.50;69.90;;;;;;6119665;28;80204;-66
2023/07/29 09:18:31;;;;;;;5.50;2.47;;;25.50;70.10;;;;;;6122887;28;82830;-62
2023/07/29 09:21:32;;;;;;;4.30;2.00;;;25.50;69.30;;;;;;6132902;28;80550;-65
2023/07/29 09:24:34;;;;;;;5.28;1.92;;;25.60;69.20;;;;;;6122760;28;83319;-68
2023/07/29 09:27:38;;;;;;;4.78;2.03;;;25.60;69.10;;;;;;6134108;28;81644;-62
2023/07/29 09:30:39;;;;;;;3.88;2.30;;;25.70;68.40;;;;;;6116022;28;82050;-63
2023/07/29 09:33:40;;;;;;;2.55;1.70;;;25.70;68.10;;;;;;6132690;28;81150;-64
2023/07/29 09:36:40;;;;;;;3.55;1.88;;;25.70;68.30;;;;;;6128047;28;81843;-64
2023/07/29 09:39:41;;;;;;;3.45;2.67;;;25.80;68.30;;;;;;6120394;28;82886;-64
2023/07/29 09:42:41;;;;;;;4.55;2.22;;;25.80;67.90;;;;;;6120222;28;80925;-64
2023/07/29 09:45:42;;;;;;;2.75;2.35;;;25.80;68.00;;;;;;6123847;28;80550;-63
2023/07/29 09:48:45;;;;;;;3.47;2.78;;;25.90;68.60;;;;;;6131608;28;80845;-67
2023/07/29 09:51:46;;;;;;;5.45;2.47;;;25.90;68.30;;;;;;6096418;28;83569;-67
2023/07/29 09:54:46;;;;;;;2.33;1.98;;;25.90;68.20;;;;;;6117652;28;81902;-64
2023/07/29 09:57:47;;;;;;;11.88;2.55;;;25.90;66.60;;;;;;6131047;28;81737;-63
2023/07/29 10:00:48;;;;;;;2.35;1.90;;;26.00;65.20;;;;;;6141505;28;83567;-62
2023/07/29 10:03:48;;;;;;;2.00;1.80;;;26.10;64.90;;;;;;6140029;28;80865;-70
2023/07/29 10:06:49;;;;;;;2.45;1.85;;;26.20;65.40;;;;;;6121093;28;80279;-63
2023/07/29 10:09:49;;;;;;;3.55;1.63;;;26.20;64.90;;;;;;6129163;28;83444;-64
2023/07/29 10:12:50;;;;;;;5.93;1.83;;;26.30;64.80;;;;;;6118396;28;80860;-64
2023/07/29 10:15:50;;;;;;;2.28;1.90;;;26.30;64.70;;;;;;6127817;28;81511;-64
2023/07/29 10:18:51;;;;;;;1.88;1.65;;;26.30;64.30;;;;;;6121010;28;80473;-65
2023/07/29 10:21:52;;;;;;;2.45;2.08;;;26.30;64.90;;;;;;6128432;28;83064;-63
2023/07/29 10:24:52;;;;;;;4.18;2.22;;;26.20;65.50;;;;;;6135546;28;82863;-62
2023/07/29 10:27:52;;;;;;;3.25;2.00;;;26.30;64.80;;;;;;6108927;28;83115;-65
2023/07/29 10:30:53;;;;;;;1.95;1.85;;;26.20;64.30;;;;;;6124858;28;80950;-65
2023/07/29 10:33:53;;;;;;;1.98;1.88;;;26.20;64.50;;;;;;6120642;28;81326;-62
2023/07/29 10:36:54;;;;;;;2.65;2.03;;;26.30;64.70;;;;;;6131983;28;81605;-62
2023/07/29 10:39:55;;;;;;;2.45;1.80;;;26.30;64.70;;;;;;6111625;28;80428;-64
2023/07/29 10:42:55;;;;;;;2.15;1.80;;;26.30;65.10;;;;;;6108748;28;83513;-61
2023/07/29 10:45:56;;;;;;;2.25;2.05;;;26.20;66.10;;;;;;6143804;28;80140;-66
2023/07/29 10:48:56;;;;;;;3.42;2.30;;;26.30;67.00;;;;;;6127111;28;82048;-62
2023/07/29 10:51:57;;;;;;;7.20;2.70;;;26.30;68.30;;;;;;6130553;28;80106;-62
2023/07/29 10:55:01;;;;;;;3.03;2.20;;;26.30;69.50;;;;;;6117709;28;81484;-70
2023/07/29 10:58:01;;;;;;;3.45;2.50;;;26.30;69.80;;;;;;6133351;28;80474;-67
2023/07/29 11:01:02;;;;;;;5.78;2.40;;;26.40;69.90;;;;;;6128184;28;80757;-70
2023/07/29 11:04:03;;;;;;;3.65;2.45;;;26.40;70.50;;;;;;6127257;28;84867;-69
2023/07/29 11:07:04;;;;;;;3.65;2.90;;;26.40;69.50;;;;;;6143724;28;81319;-67
2023/07/29 11:10:04;;;;;;;3.65;2.35;;;26.50;69.00;;;;;;6125920;28;81935;-72
2023/07/29 11:13:06;;;;;;;3.00;2.70;;;26.60;69.10;;;;;;6135255;28;80618;-68
2023/07/29 11:16:06;;;;;;;7.95;2.50;;;26.70;68.80;;;;;;6123976;28;81943;-73
2023/07/29 11:19:07;;;;;;;2.72;2.53;;;26.80;68.50;;;;;;6139440;28;80874;-68
2023/07/29 11:22:08;;;;;;;5.53;2.17;;;26.80;68.10;;;;;;6133093;28;80179;-58
2023/07/29 11:25:09;;;;;;;2.17;1.85;;;26.80;66.80;;;;;;6115466;28;82744;-63
2023/07/29 11:28:09;;;;;;;2.00;1.77;;;26.90;66.10;;;;;;6134597;28;80535;-62
2023/07/29 11:31:10;;;;;;;2.40;2.20;;;26.80;65.30;;;;;;6109546;28;82451;-63
2023/07/29 11:34:11;;;;;;;2.20;2.00;;;26.80;65.20;;;;;;6108853;28;81725;-62
2023/07/29 11:37:12;;;;;;;4.25;2.00;;;26.80;65.50;;;;;;6099864;28;82117;-62
2023/07/29 11:40:13;;;;;;;3.47;2.28;;;26.80;65.90;;;;;;6102902;28;80911;-61
2023/07/29 11:43:13;;;;;;;3.55;2.00;;;26.80;65.80;;;;;;6108062;28;80697;-61
2023/07/29 11:46:14;;;;;;;2.60;2.38;;;26.70;66.70;;;;;;6114375;28;82806;-63
2023/07/29 11:49:15;;;;;;;3.17;2.63;;;26.60;68.00;;;;;;6130062;28;80168;-62
2023/07/29 11:52:18;;;;;;;3.70;2.50;;;26.60;68.80;;;;;;6094615;28;82458;-62
2023/07/29 11:55:19;;;;;;;3.60;2.60;;;26.60;69.40;;;;;;6114434;28;83741;-62
2023/07/29 11:58:20;;;;;;;3.22;2.20;;;26.60;69.60;;;;;;6097707;28;80293;-62
2023/07/29 12:01:20;;;;;;;3.10;2.13;;;26.60;69.20;;;;;;6120049;28;81021;-62
2023/07/29 12:04:21;;;;;;;4.47;2.38;;;26.60;68.50;;;;;;6118985;28;81155;-63
2023/07/29 12:07:21;;;;;;;2.55;2.05;;;26.60;68.00;;;;;;6118294;28;81628;-62
2023/07/29 12:10:22;;;;;;;5.35;3.08;;;26.60;68.70;;;;;;6127413;28;87312;-63
2023/07/29 12:13:23;;;;;;;3.08;2.30;;;26.60;68.00;;;;;;6109836;28;83380;-63
2023/07/29 12:16:23;;;;;;;2.88;2.20;;;26.60;66.70;;;;;;6107810;28;81139;-60
2023/07/29 12:19:25;;;;;;;2.30;1.90;;;26.70;66.60;;;;;;6110433;28;80456;-61
2023/07/29 12:22:25;;;;;;;3.90;2.20;;;26.70;67.00;;;;;;6119456;28;80828;-61
2023/07/29 12:25:26;;;;;;;2.90;2.05;;;26.80;67.70;;;;;;6120213;28;80676;-61
2023/07/29 12:28:26;;;;;;;2.45;1.80;;;26.80;66.20;;;;;;6122440;28;80374;-61
2023/07/29 12:31:27;;;;;;;4.30;1.77;;;26.80;65.20;;;;;;6126361;28;81950;-62
2023/07/29 12:34:30;;;;;;;2.60;1.92;;;26.80;65.40;;;;;;6119411;28;81095;-63
2023/07/29 12:37:30;;;;;;;5.47;1.92;;;26.90;65.30;;;;;;6135872;28;81446;-62
2023/07/29 12:40:31;;;;;;;2.25;1.90;;;26.90;65.50;;;;;;6126855;28;81767;-63
2023/07/29 12:43:31;;;;;;;3.78;2.00;;;26.90;65.50;;;;;;6118549;28;80836;-64
2023/07/29 12:46:32;;;;;;;2.17;1.95;;;26.90;65.40;;;;;;6115183;28;82803;-63
2023/07/29 12:49:32;;;;;;;3.28;1.92;;;26.90;65.50;;;;;;6107678;28;80417;-63
2023/07/29 12:52:33;;;;;;;1.77;1.67;;;26.80;65.50;;;;;;6130414;28;80357;-63
2023/07/29 12:55:33;;;;;;;2.38;2.17;;;26.80;65.80;;;;;;6123068;28;80517;-62
2023/07/29 12:58:34;;;;;;;2.42;2.17;;;26.80;66.10;;;;;;6130619;28;81547;-63
2023/07/29 13:01:35;;;;;;;4.05;1.85;;;26.80;66.70;;;;;;6130291;28;83144;-61
2023/07/29 13:04:35;;;;;;;2.00;1.90;;;26.80;66.70;;;;;;6132168;28;81181;-62
2023/07/29 13:07:36;;;;;;;2.72;2.33;;;26.70;66.50;;;;;;6120781;28;80829;-62
2023/07/29 13:10:36;;;;;;;4.85;2.10;;;26.70;66.30;;;;;;6131653;28;79993;-67
2023/07/29 13:13:37;;;;;;;3.03;2.22;;;26.70;66.40;;;;;;6136983;28;81845;-65
2023/07/29 13:16:37;;;;;;;2.60;2.38;;;26.70;66.20;;;;;;6124039;28;81934;-67
2023/07/29 13:19:38;;;;;;;4.47;2.35;;;26.70;66.30;;;;;;6133056;28;80122;-67
2023/07/29 13:22:38;;;;;;;1.73;1.63;;;26.80;66.20;;;;;;6122257;28;81831;-68
2023/07/29 13:25:39;;;;;;;4.15;1.95;;;26.80;65.20;;;;;;6129607;28;81418;-68
2023/07/29 13:28:39;;;;;;;3.00;2.08;;;26.80;64.90;;;;;;6121674;28;83636;-69
2023/07/29 13:31:40;;;;;;;4.30;2.10;;;26.80;64.30;;;;;;6129156;28;82418;-68
2023/07/29 13:34:41;;;;;;;2.15;1.88;;;26.80;64.00;;;;;;6127593;28;82992;-68
2023/07/29 13:37:41;;;;;;;1.75;1.65;;;26.80;63.20;;;;;;6122705;28;80381;-68
2023/07/29 13:40:42;;;;;;;2.53;2.13;;;26.80;63.10;;;;;;6128550;28;80582;-69
2023/07/29 13:43:42;;;;;;;1.83;1.67;;;26.90;63.50;;;;;;6111806;28;82091;-68
2023/07/29 13:46:43;;;;;;;2.83;2.22;;;26.90;62.40;;;;;;6130655;28;80986;-66
2023/07/29 13:49:43;;;;;;;3.75;2.05;;;26.80;61.50;;;;;;6128834;28;80385;-65
2023/07/29 13:52:44;;;;;;;5.80;2.28;;;26.80;61.50;;;;;;6113909;28;83236;-65
2023/07/29 13:55:44;;;;;;;5.47;2.22;;;26.80;61.40;;;;;;6122783;28;82130;-63
2023/07/29 13:58:45;;;;;;;4.15;1.98;;;26.80;61.80;;;;;;6121407;28;80229;-66
2023/07/29 14:01:46;;;;;;;2.22;1.90;;;26.70;61.70;;;;;;6128025;28;80240;-68
2023/07/29 14:04:46;;;;;;;2.20;2.00;;;26.70;61.70;;;;;;6119384;28;81684;-62
2023/07/29 14:07:47;;;;;;;2.80;2.20;;;26.60;61.90;;;;;;6128915;28;80552;-60
2023/07/29 14:10:47;;;;;;;2.88;2.35;;;26.60;62.70;;;;;;6129008;28;80136;-63
2023/07/29 14:13:48;;;;;;;131.88;58.97;;;26.60;62.80;;;;;;6118223;28;82299;-61
2023/07/29 14:16:49;;;;;;;23.58;12.25;;;26.50;63.80;;;;;;6146820;28;83696;-63
2023/07/29 14:19:49;;;;;;;12.63;5.30;;;26.50;65.80;;;;;;6115595;28;83700;-61
2023/07/29 14:22:50;;;;;;;7.88;3.55;;;26.50;66.70;;;;;;6140806;28;82849;-64
2023/07/29 14:25:51;;;;;;;3.88;2.80;;;26.40;67.50;;;;;;6120609;28;82221;-64
2023/07/29 14:28:51;;;;;;;3.28;2.35;;;26.40;68.20;;;;;;6127947;28;81379;-64
2023/07/29 14:31:52;;;;;;;3.25;2.85;;;26.30;68.90;;;;;;6126152;28;80503;-66
2023/07/29 14:34:52;;;;;;;9.27;2.92;;;26.30;69.90;;;;;;6118201;28;81396;-64
2023/07/29 14:37:53;;;;;;;3.42;2.35;;;26.20;71.70;;;;;;6134254;28;80469;-70
2023/07/29 14:40:54;;;;;;;8.82;2.45;;;26.20;73.60;;;;;;6114999;28;81125;-65
2023/07/29 14:43:55;;;;;;;4.00;2.78;;;26.20;73.10;;;;;;6125477;28;80648;-63
2023/07/29 14:46:55;;;;;;;5.28;2.42;;;26.30;73.60;;;;;;6115242;28;82695;-64
2023/07/29 14:49:56;;;;;;;3.10;2.53;;;26.40;74.60;;;;;;6126261;28;80312;-64
2023/07/29 14:52:56;;;;;;;5.07;2.97;;;26.20;77.00;;;;;;6125083;28;80475;-61
2023/07/29 14:55:57;;;;;;;3.97;2.53;;;26.00;80.00;;;;;;6112742;28;81436;-64
2023/07/29 14:58:57;;;;;;;5.45;2.40;;;25.90;80.00;;;;;;6122931;28;80375;-64
2023/07/29 15:01:58;;;;;;;3.00;2.42;;;25.70;78.60;;;;;;6114421;28;82100;-61
2023/07/29 15:04:58;;;;;;;3.15;2.28;;;25.80;80.00;;;;;;6123064;28;86445;-65
2023/07/29 15:07:59;;;;;;;3.42;2.60;;;25.70;78.50;;;;;;6117489;28;82208;-64
2023/07/29 15:10:59;;;;;;;2.60;2.30;;;25.60;78.80;;;;;;6128443;28;80442;-61
2023/07/29 15:14:00;;;;;;;3.03;2.10;;;25.60;78.40;;;;;;6126897;28;81328;-62
2023/07/29 15:17:00;;;;;;;3.05;2.55;;;25.60;76.10;;;;;;6121038;28;82971;-64
2023/07/29 15:20:01;;;;;;;4.72;2.83;;;25.50;76.50;;;;;;6123520;28;80670;-67
2023/07/29 15:23:01;;;;;;;3.35;2.55;;;25.50;76.70;;;;;;6116812;28;80574;-62
2023/07/29 15:26:02;;;;;;;3.58;2.83;;;25.50;74.30;;;;;;6128512;28;80304;-65
2023/07/29 15:29:02;;;;;;;3.72;2.78;;;25.50;74.40;;;;;;6138222;28;85048;-65
2023/07/29 15:32:03;;;;;;;3.25;2.65;;;25.50;74.80;;;;;;6122281;28;82088;-64
2023/07/29 15:35:03;;;;;;;4.22;3.10;;;25.50;74.70;;;;;;6108613;28;80516;-65